sensor_id;sensor_type;location;lat;lon;timestamp;temperature;humidity
6843;DHT22;3460;52.028;8.916;2023-01-31T00:02:08;4.20;99.90
6843;DHT22;3460;52.028;8.916;2023-01-31T00:04:36;4.20;99.90
6843;DHT22;3460;52.028;8.916;2023-01-31T00:07:03;4.20;99.90
6843;DHT22;3460;52.028;8.916;2023-01-31T00:09:29;4.30;99.90
6843;DHT22;3460;52.028;8.916;2023-01-31T00:11:56;4.20;99.90
6843;DHT22;3460;52.028;8.916;2023-01-31T00:14:22;4.30;99.90
6843;DHT22;3460;52.028;8.916;2023-01-31T00:16:50;4.20;99.90
6843;DHT22;3460;52.028;8.916;2023-01-31T00:19:17;4.30;99.90
6843;DHT22;3460;52.028;8.916;2023-01-31T00:21:44;4.20;99.90
6843;DHT22;3460;52.028;8.916;2023-01-31T00:24:12;4.20;99.90
6843;DHT22;3460;52.028;8.916;2023-01-31T00:26:38;4.20;99.90
6843;DHT22;3460;52.028;8.916;2023-01-31T00:29:05;4.20;99.90
6843;DHT22;3460;52.028;8.916;2023-01-31T00:31:33;4.20;99.90
6843;DHT22;3460;52.028;8.916;2023-01-31T00:34:00;4.20;99.90
6843;DHT22;3460;52.028;8.916;2023-01-31T00:36:28;4.20;99.90
6843;DHT22;3460;52.028;8.916;2023-01-31T00:38:57;4.20;99.90
6843;DHT22;3460;52.028;8.916;2023-01-31T00:41:25;4.20;99.90
6843;DHT22;3460;52.028;8.916;2023-01-31T00:43:52;4.20;99.90
6843;DHT22;3460;52.028;8.916;2023-01-31T00:46:19;4.20;99.90
6843;DHT22;3460;52.028;8.916;2023-01-31T00:48:46;4.30;99.90
6843;DHT22;3460;52.028;8.916;2023-01-31T00:51:13;4.30;99.90
6843;DHT22;3460;52.028;8.916;2023-01-31T00:53:40;4.30;99.90
6843;DHT22;3460;52.028;8.916;2023-01-31T00:56:10;4.30;99.90
6843;DHT22;3460;52.028;8.916;2023-01-31T00:58:37;4.20;99.90
6843;DHT22;3460;52.028;8.916;2023-01-31T01:01:06;4.40;99.90
6843;DHT22;3460;52.028;8.916;2023-01-31T01:03:33;4.40;99.90
6843;DHT22;3460;52.028;8.916;2023-01-31T01:06:00;4.30;99.90
6843;DHT22;3460;52.028;8.916;2023-01-31T01:08:27;4.40;99.90
6843;DHT22;3460;52.028;8.916;2023-01-31T01:10:54;4.40;99.90
6843;DHT22;3460;52.028;8.916;2023-01-31T01:13:22;4.40;99.90
6843;DHT22;3460;52.028;8.916;2023-01-31T01:15:49;4.40;99.90
6843;DHT22;3460;52.028;8.916;2023-01-31T01:18:15;4.40;99.90
6843;DHT22;3460;52.028;8.916;2023-01-31T01:20:42;4.30;99.90
6843;DHT22;3460;52.028;8.916;2023-01-31T01:23:08;4.40;99.90
6843;DHT22;3460;52.028;8.916;2023-01-31T01:25:42;4.30;99.90
6843;DHT22;3460;52.028;8.916;2023-01-31T01:28:09;4.30;99.90
6843;DHT22;3460;52.028;8.916;2023-01-31T01:30:38;4.40;99.90
6843;DHT22;3460;52.028;8.916;2023-01-31T01:33:05;4.40;99.90
6843;DHT22;3460;52.028;8.916;2023-01-31T01:35:31;4.40;99.90
6843;DHT22;3460;52.028;8.916;2023-01-31T01:37:58;4.30;99.90
6843;DHT22;3460;52.028;8.916;2023-01-31T01:40:24;4.40;99.90
6843;DHT22;3460;52.028;8.916;2023-01-31T01:42:51;4.40;99.90
6843;DHT22;3460;52.028;8.916;2023-01-31T01:45:17;4.50;99.90
6843;DHT22;3460;52.028;8.916;2023-01-31T01:47:47;4.30;99.90
6843;DHT22;3460;52.028;8.916;2023-01-31T01:50:22;4.40;99.90
6843;DHT22;3460;52.028;8.916;2023-01-31T01:52:54;4.30;99.90
6843;DHT22;3460;52.028;8.916;2023-01-31T01:55:25;4.40;99.90
6843;DHT22;3460;52.028;8.916;2023-01-31T01:57:57;4.30;99.90
6843;DHT22;3460;52.028;8.916;2023-01-31T02:00:27;4.30;99.90
6843;DHT22;3460;52.028;8.916;2023-01-31T02:02:57;4.30;99.90
6843;DHT22;3460;52.028;8.916;2023-01-31T02:05:27;4.30;99.90
6843;DHT22;3460;52.028;8.916;2023-01-31T02:07:55;4.30;99.90
6843;DHT22;3460;52.028;8.916;2023-01-31T02:10:25;4.30;99.90
6843;DHT22;3460;52.028;8.916;2023-01-31T02:12:53;4.30;99.90
6843;DHT22;3460;52.028;8.916;2023-01-31T02:15:20;4.20;99.90
6843;DHT22;3460;52.028;8.916;2023-01-31T02:17:48;4.30;99.90
6843;DHT22;3460;52.028;8.916;2023-01-31T02:23:31;4.20;99.90
6843;DHT22;3460;52.028;8.916;2023-01-31T02:26:29;4.20;99.90
6843;DHT22;3460;52.028;8.916;2023-01-31T02:29:31;4.20;99.90
6843;DHT22;3460;52.028;8.916;2023-01-31T02:32:29;4.20;99.90
6843;DHT22;3460;52.028;8.916;2023-01-31T02:35:05;4.30;99.90
6843;DHT22;3460;52.028;8.916;2023-01-31T02:37:41;4.20;99.90
6843;DHT22;3460;52.028;8.916;2023-01-31T02:40:16;4.20;99.90
6843;DHT22;3460;52.028;8.916;2023-01-31T02:42:51;4.20;99.90
6843;DHT22;3460;52.028;8.916;2023-01-31T02:45:27;4.20;99.90
6843;DHT22;3460;52.028;8.916;2023-01-31T02:48:04;4.30;99.90
6843;DHT22;3460;52.028;8.916;2023-01-31T02:50:37;4.20;99.90
6843;DHT22;3460;52.028;8.916;2023-01-31T02:53:12;4.20;99.90
6843;DHT22;3460;52.028;8.916;2023-01-31T02:55:44;4.20;99.90
6843;DHT22;3460;52.028;8.916;2023-01-31T02:58:35;4.20;99.90
6843;DHT22;3460;52.028;8.916;2023-01-31T03:01:03;4.10;99.90
6843;DHT22;3460;52.028;8.916;2023-01-31T03:03:35;4.10;99.90
6843;DHT22;3460;52.028;8.916;2023-01-31T03:09:02;4.00;99.90
6843;DHT22;3460;52.028;8.916;2023-01-31T03:11:37;4.00;99.90
6843;DHT22;3460;52.028;8.916;2023-01-31T03:14:12;4.00;99.90
6843;DHT22;3460;52.028;8.916;2023-01-31T03:16:49;4.00;99.90
6843;DHT22;3460;52.028;8.916;2023-01-31T03:19:45;4.00;99.90
6843;DHT22;3460;52.028;8.916;2023-01-31T03:22:16;4.00;99.90
6843;DHT22;3460;52.028;8.916;2023-01-31T03:24:43;4.00;99.90
6843;DHT22;3460;52.028;8.916;2023-01-31T03:27:13;4.00;99.90
6843;DHT22;3460;52.028;8.916;2023-01-31T03:29:40;4.00;99.90
6843;DHT22;3460;52.028;8.916;2023-01-31T03:32:13;4.00;99.90
6843;DHT22;3460;52.028;8.916;2023-01-31T03:34:43;3.90;99.90
6843;DHT22;3460;52.028;8.916;2023-01-31T03:37:14;3.90;99.90
6843;DHT22;3460;52.028;8.916;2023-01-31T03:39:45;3.90;99.90
6843;DHT22;3460;52.028;8.916;2023-01-31T03:42:22;3.90;99.90
6843;DHT22;3460;52.028;8.916;2023-01-31T03:44:53;3.90;99.90
6843;DHT22;3460;52.028;8.916;2023-01-31T03:47:25;3.90;99.90
6843;DHT22;3460;52.028;8.916;2023-01-31T03:49:57;3.90;99.90
6843;DHT22;3460;52.028;8.916;2023-01-31T03:52:28;3.80;99.90
6843;DHT22;3460;52.028;8.916;2023-01-31T03:54:59;3.80;99.90
6843;DHT22;3460;52.028;8.916;2023-01-31T03:57:30;3.70;99.90
6843;DHT22;3460;52.028;8.916;2023-01-31T03:59:59;3.70;99.90
6843;DHT22;3460;52.028;8.916;2023-01-31T04:02:33;3.70;99.90
6843;DHT22;3460;52.028;8.916;2023-01-31T04:05:06;3.60;99.90
6843;DHT22;3460;52.028;8.916;2023-01-31T04:07:34;3.60;99.90
6843;DHT22;3460;52.028;8.916;2023-01-31T04:10:02;3.60;99.90
6843;DHT22;3460;52.028;8.916;2023-01-31T04:12:34;3.60;99.90
6843;DHT22;3460;52.028;8.916;2023-01-31T04:15:01;3.60;99.90
6843;DHT22;3460;52.028;8.916;2023-01-31T04:17:27;3.50;99.90
6843;DHT22;3460;52.028;8.916;2023-01-31T04:19:54;3.50;99.90
6843;DHT22;3460;52.028;8.916;2023-01-31T04:22:22;3.50;99.90
6843;DHT22;3460;52.028;8.916;2023-01-31T04:24:48;3.50;99.90
6843;DHT22;3460;52.028;8.916;2023-01-31T04:27:15;3.50;99.90
6843;DHT22;3460;52.028;8.916;2023-01-31T04:29:42;3.50;99.90
6843;DHT22;3460;52.028;8.916;2023-01-31T04:32:08;3.50;99.90
6843;DHT22;3460;52.028;8.916;2023-01-31T04:34:35;3.50;99.90
6843;DHT22;3460;52.028;8.916;2023-01-31T04:37:01;3.50;99.90
6843;DHT22;3460;52.028;8.916;2023-01-31T04:39:29;3.50;99.90
6843;DHT22;3460;52.028;8.916;2023-01-31T04:41:56;3.50;99.90
6843;DHT22;3460;52.028;8.916;2023-01-31T04:44:23;3.50;99.90
6843;DHT22;3460;52.028;8.916;2023-01-31T04:46:49;3.50;99.90
6843;DHT22;3460;52.028;8.916;2023-01-31T04:49:16;3.40;99.90
6843;DHT22;3460;52.028;8.916;2023-01-31T04:51:42;3.40;99.90
6843;DHT22;3460;52.028;8.916;2023-01-31T04:54:09;3.30;99.90
6843;DHT22;3460;52.028;8.916;2023-01-31T04:56:37;3.30;99.90
6843;DHT22;3460;52.028;8.916;2023-01-31T04:59:03;3.40;99.90
6843;DHT22;3460;52.028;8.916;2023-01-31T05:01:30;3.40;99.90
6843;DHT22;3460;52.028;8.916;2023-01-31T05:03:57;3.40;99.90
6843;DHT22;3460;52.028;8.916;2023-01-31T05:06:23;3.50;99.90
6843;DHT22;3460;52.028;8.916;2023-01-31T05:08:50;3.50;99.90
6843;DHT22;3460;52.028;8.916;2023-01-31T05:11:19;3.60;99.90
6843;DHT22;3460;52.028;8.916;2023-01-31T05:13:47;3.60;99.90
6843;DHT22;3460;52.028;8.916;2023-01-31T05:16:13;3.60;99.90
6843;DHT22;3460;52.028;8.916;2023-01-31T05:18:40;3.60;99.90
6843;DHT22;3460;52.028;8.916;2023-01-31T05:21:07;3.70;99.90
6843;DHT22;3460;52.028;8.916;2023-01-31T05:23:34;3.70;99.90
6843;DHT22;3460;52.028;8.916;2023-01-31T05:26:01;3.70;99.90
6843;DHT22;3460;52.028;8.916;2023-01-31T05:28:28;3.60;99.90
6843;DHT22;3460;52.028;8.916;2023-01-31T05:31:01;3.60;99.90
6843;DHT22;3460;52.028;8.916;2023-01-31T05:33:28;3.70;99.90
6843;DHT22;3460;52.028;8.916;2023-01-31T05:35:56;3.60;99.90
6843;DHT22;3460;52.028;8.916;2023-01-31T05:38:22;3.60;99.90
6843;DHT22;3460;52.028;8.916;2023-01-31T05:40:49;3.60;99.90
6843;DHT22;3460;52.028;8.916;2023-01-31T05:43:16;3.60;99.90
6843;DHT22;3460;52.028;8.916;2023-01-31T05:45:43;3.60;99.90
6843;DHT22;3460;52.028;8.916;2023-01-31T05:48:11;3.60;99.90
6843;DHT22;3460;52.028;8.916;2023-01-31T05:50:38;3.70;99.90
6843;DHT22;3460;52.028;8.916;2023-01-31T05:53:04;3.60;99.90
6843;DHT22;3460;52.028;8.916;2023-01-31T05:55:31;3.60;99.90
6843;DHT22;3460;52.028;8.916;2023-01-31T05:57:57;3.70;99.90
6843;DHT22;3460;52.028;8.916;2023-01-31T06:00:25;3.60;99.90
6843;DHT22;3460;52.028;8.916;2023-01-31T06:02:56;3.70;99.90
6843;DHT22;3460;52.028;8.916;2023-01-31T06:05:24;3.60;99.90
6843;DHT22;3460;52.028;8.916;2023-01-31T06:07:51;3.60;99.90
6843;DHT22;3460;52.028;8.916;2023-01-31T06:10:17;3.70;99.90
6843;DHT22;3460;52.028;8.916;2023-01-31T06:12:44;3.60;99.90
6843;DHT22;3460;52.028;8.916;2023-01-31T06:15:11;3.60;99.90
6843;DHT22;3460;52.028;8.916;2023-01-31T06:17:37;3.70;99.90
6843;DHT22;3460;52.028;8.916;2023-01-31T06:20:05;3.70;99.90
6843;DHT22;3460;52.028;8.916;2023-01-31T06:22:33;3.70;99.90
6843;DHT22;3460;52.028;8.916;2023-01-31T06:24:59;3.80;99.90
6843;DHT22;3460;52.028;8.916;2023-01-31T06:27:26;3.80;99.90
6843;DHT22;3460;52.028;8.916;2023-01-31T06:29:52;3.80;99.90
6843;DHT22;3460;52.028;8.916;2023-01-31T06:32:19;3.80;99.90
6843;DHT22;3460;52.028;8.916;2023-01-31T06:34:45;3.90;99.90
6843;DHT22;3460;52.028;8.916;2023-01-31T06:37:12;3.90;99.90
6843;DHT22;3460;52.028;8.916;2023-01-31T06:39:40;4.00;99.90
6843;DHT22;3460;52.028;8.916;2023-01-31T06:42:07;3.90;99.90
6843;DHT22;3460;52.028;8.916;2023-01-31T06:44:33;4.00;99.90
6843;DHT22;3460;52.028;8.916;2023-01-31T06:47:02;3.90;99.90
6843;DHT22;3460;52.028;8.916;2023-01-31T06:49:28;4.00;99.90
6843;DHT22;3460;52.028;8.916;2023-01-31T06:51:55;4.00;99.90
6843;DHT22;3460;52.028;8.916;2023-01-31T06:54:21;4.00;99.90
6843;DHT22;3460;52.028;8.916;2023-01-31T06:56:49;4.10;99.90
6843;DHT22;3460;52.028;8.916;2023-01-31T06:59:16;4.10;99.90
6843;DHT22;3460;52.028;8.916;2023-01-31T07:01:42;4.10;99.90
6843;DHT22;3460;52.028;8.916;2023-01-31T07:04:09;4.10;99.90
6843;DHT22;3460;52.028;8.916;2023-01-31T07:06:36;4.10;99.90
6843;DHT22;3460;52.028;8.916;2023-01-31T07:09:02;4.10;99.90
6843;DHT22;3460;52.028;8.916;2023-01-31T07:11:29;4.20;99.90
6843;DHT22;3460;52.028;8.916;2023-01-31T07:13:57;4.20;99.90
6843;DHT22;3460;52.028;8.916;2023-01-31T07:16:24;4.20;99.90
6843;DHT22;3460;52.028;8.916;2023-01-31T07:18:51;4.30;99.90
6843;DHT22;3460;52.028;8.916;2023-01-31T07:21:18;4.20;99.90
6843;DHT22;3460;52.028;8.916;2023-01-31T07:23:45;4.20;99.90
6843;DHT22;3460;52.028;8.916;2023-01-31T07:26:11;4.20;99.90
6843;DHT22;3460;52.028;8.916;2023-01-31T07:28:38;4.30;99.90
6843;DHT22;3460;52.028;8.916;2023-01-31T07:31:07;4.30;99.90
6843;DHT22;3460;52.028;8.916;2023-01-31T07:33:35;4.30;99.90
6843;DHT22;3460;52.028;8.916;2023-01-31T07:36:02;4.30;99.90
6843;DHT22;3460;52.028;8.916;2023-01-31T07:38:29;4.30;99.90
6843;DHT22;3460;52.028;8.916;2023-01-31T07:40:57;4.50;99.90
6843;DHT22;3460;52.028;8.916;2023-01-31T07:43:24;4.50;99.90
6843;DHT22;3460;52.028;8.916;2023-01-31T07:45:50;4.50;99.90
6843;DHT22;3460;52.028;8.916;2023-01-31T07:48:18;4.60;99.90
6843;DHT22;3460;52.028;8.916;2023-01-31T07:50:48;4.50;99.90
6843;DHT22;3460;52.028;8.916;2023-01-31T07:53:15;4.50;99.90
6843;DHT22;3460;52.028;8.916;2023-01-31T07:55:41;4.60;99.90
6843;DHT22;3460;52.028;8.916;2023-01-31T07:58:12;4.60;99.90
6843;DHT22;3460;52.028;8.916;2023-01-31T08:00:38;4.60;99.90
6843;DHT22;3460;52.028;8.916;2023-01-31T08:03:25;4.70;99.90
6843;DHT22;3460;52.028;8.916;2023-01-31T08:05:59;4.70;99.90
6843;DHT22;3460;52.028;8.916;2023-01-31T08:08:26;4.80;99.90
6843;DHT22;3460;52.028;8.916;2023-01-31T08:10:53;4.90;99.90
6843;DHT22;3460;52.028;8.916;2023-01-31T08:13:19;4.80;99.90
6843;DHT22;3460;52.028;8.916;2023-01-31T08:15:46;4.90;99.90
6843;DHT22;3460;52.028;8.916;2023-01-31T08:18:14;4.90;99.90
6843;DHT22;3460;52.028;8.916;2023-01-31T08:20:42;4.90;99.90
6843;DHT22;3460;52.028;8.916;2023-01-31T08:23:08;5.00;99.90
6843;DHT22;3460;52.028;8.916;2023-01-31T08:25:35;5.10;99.90
6843;DHT22;3460;52.028;8.916;2023-01-31T08:28:02;5.10;99.90
6843;DHT22;3460;52.028;8.916;2023-01-31T08:30:29;5.10;99.90
6843;DHT22;3460;52.028;8.916;2023-01-31T08:32:56;5.10;99.90
6843;DHT22;3460;52.028;8.916;2023-01-31T08:35:24;5.20;99.90
6843;DHT22;3460;52.028;8.916;2023-01-31T08:37:52;5.20;99.90
6843;DHT22;3460;52.028;8.916;2023-01-31T08:40:18;5.20;99.90
6843;DHT22;3460;52.028;8.916;2023-01-31T08:42:52;5.30;99.90
6843;DHT22;3460;52.028;8.916;2023-01-31T08:45:19;5.30;99.90
6843;DHT22;3460;52.028;8.916;2023-01-31T08:47:46;5.40;99.90
6843;DHT22;3460;52.028;8.916;2023-01-31T08:50:12;5.40;99.90
6843;DHT22;3460;52.028;8.916;2023-01-31T08:52:39;5.50;99.90
6843;DHT22;3460;52.028;8.916;2023-01-31T08:55:08;5.60;99.90
6843;DHT22;3460;52.028;8.916;2023-01-31T08:57:38;5.60;99.90
6843;DHT22;3460;52.028;8.916;2023-01-31T09:00:06;5.60;99.90
6843;DHT22;3460;52.028;8.916;2023-01-31T09:02:33;5.50;99.90
6843;DHT22;3460;52.028;8.916;2023-01-31T09:05:00;5.50;99.90
6843;DHT22;3460;52.028;8.916;2023-01-31T09:07:26;5.40;99.90
6843;DHT22;3460;52.028;8.916;2023-01-31T09:09:53;5.50;99.90
6843;DHT22;3460;52.028;8.916;2023-01-31T09:12:21;5.40;99.90
6843;DHT22;3460;52.028;8.916;2023-01-31T09:14:49;5.40;99.90
6843;DHT22;3460;52.028;8.916;2023-01-31T09:17:16;5.40;99.90
6843;DHT22;3460;52.028;8.916;2023-01-31T09:19:43;5.40;99.90
6843;DHT22;3460;52.028;8.916;2023-01-31T09:22:10;5.30;99.90
6843;DHT22;3460;52.028;8.916;2023-01-31T09:24:36;5.40;99.90
6843;DHT22;3460;52.028;8.916;2023-01-31T09:27:03;5.40;99.90
6843;DHT22;3460;52.028;8.916;2023-01-31T09:29:31;5.40;99.90
6843;DHT22;3460;52.028;8.916;2023-01-31T09:31:58;5.30;99.90
6843;DHT22;3460;52.028;8.916;2023-01-31T09:34:24;5.30;99.90
6843;DHT22;3460;52.028;8.916;2023-01-31T09:36:51;5.20;99.90
6843;DHT22;3460;52.028;8.916;2023-01-31T09:39:18;5.30;99.90
6843;DHT22;3460;52.028;8.916;2023-01-31T09:41:47;5.30;99.90
6843;DHT22;3460;52.028;8.916;2023-01-31T09:44:19;5.20;99.90
6843;DHT22;3460;52.028;8.916;2023-01-31T09:46:51;5.10;99.90
6843;DHT22;3460;52.028;8.916;2023-01-31T09:49:24;5.00;99.90
6843;DHT22;3460;52.028;8.916;2023-01-31T09:51:56;5.00;99.90
6843;DHT22;3460;52.028;8.916;2023-01-31T09:54:27;5.00;99.90
6843;DHT22;3460;52.028;8.916;2023-01-31T09:57:00;4.90;99.90
6843;DHT22;3460;52.028;8.916;2023-01-31T09:59:37;4.90;99.90
6843;DHT22;3460;52.028;8.916;2023-01-31T10:02:21;4.90;99.90
6843;DHT22;3460;52.028;8.916;2023-01-31T10:05:05;4.90;99.90
6843;DHT22;3460;52.028;8.916;2023-01-31T10:07:42;4.90;99.90
6843;DHT22;3460;52.028;8.916;2023-01-31T10:10:24;4.80;99.90
6843;DHT22;3460;52.028;8.916;2023-01-31T10:12:55;4.80;99.90
6843;DHT22;3460;52.028;8.916;2023-01-31T10:15:28;4.80;99.90
6843;DHT22;3460;52.028;8.916;2023-01-31T10:18:02;4.80;99.90
6843;DHT22;3460;52.028;8.916;2023-01-31T10:20:34;4.80;99.90
6843;DHT22;3460;52.028;8.916;2023-01-31T10:23:06;4.70;99.90
6843;DHT22;3460;52.028;8.916;2023-01-31T10:25:42;4.80;99.90
6843;DHT22;3460;52.028;8.916;2023-01-31T10:28:12;4.80;99.90
6843;DHT22;3460;52.028;8.916;2023-01-31T10:30:43;4.90;99.90
6843;DHT22;3460;52.028;8.916;2023-01-31T10:33:20;4.90;99.90
6843;DHT22;3460;52.028;8.916;2023-01-31T10:35:49;4.90;99.90
6843;DHT22;3460;52.028;8.916;2023-01-31T10:38:21;4.90;99.90
6843;DHT22;3460;52.028;8.916;2023-01-31T10:40:53;4.90;99.90
6843;DHT22;3460;52.028;8.916;2023-01-31T10:43:28;4.90;99.90
6843;DHT22;3460;52.028;8.916;2023-01-31T10:45:58;4.90;99.90
6843;DHT22;3460;52.028;8.916;2023-01-31T10:48:28;4.90;99.90
6843;DHT22;3460;52.028;8.916;2023-01-31T10:51:07;5.00;99.90
6843;DHT22;3460;52.028;8.916;2023-01-31T10:53:53;5.00;99.90
6843;DHT22;3460;52.028;8.916;2023-01-31T10:56:29;5.00;99.90
6843;DHT22;3460;52.028;8.916;2023-01-31T10:58:59;5.00;99.90
6843;DHT22;3460;52.028;8.916;2023-01-31T11:01:27;5.10;99.90
6843;DHT22;3460;52.028;8.916;2023-01-31T11:03:55;5.10;99.90
6843;DHT22;3460;52.028;8.916;2023-01-31T11:06:23;5.10;99.90
6843;DHT22;3460;52.028;8.916;2023-01-31T11:08:52;5.20;99.90
6843;DHT22;3460;52.028;8.916;2023-01-31T11:11:21;5.10;99.90
6843;DHT22;3460;52.028;8.916;2023-01-31T11:13:56;5.20;99.90
6843;DHT22;3460;52.028;8.916;2023-01-31T11:16:23;5.20;99.90
6843;DHT22;3460;52.028;8.916;2023-01-31T11:18:52;5.20;99.90
6843;DHT22;3460;52.028;8.916;2023-01-31T11:21:23;5.20;99.90
6843;DHT22;3460;52.028;8.916;2023-01-31T11:23:51;5.20;99.90
6843;DHT22;3460;52.028;8.916;2023-01-31T11:26:29;5.20;99.90
6843;DHT22;3460;52.028;8.916;2023-01-31T11:28:56;5.20;99.90
6843;DHT22;3460;52.028;8.916;2023-01-31T11:31:28;5.20;99.90
6843;DHT22;3460;52.028;8.916;2023-01-31T11:33:57;5.20;99.90
6843;DHT22;3460;52.028;8.916;2023-01-31T11:36:31;5.30;99.90
6843;DHT22;3460;52.028;8.916;2023-01-31T11:38:58;5.20;99.90
6843;DHT22;3460;52.028;8.916;2023-01-31T11:41:30;5.20;99.90
6843;DHT22;3460;52.028;8.916;2023-01-31T11:44:06;5.20;99.90
6843;DHT22;3460;52.028;8.916;2023-01-31T11:46:41;5.20;99.90
6843;DHT22;3460;52.028;8.916;2023-01-31T11:49:13;5.20;99.90
6843;DHT22;3460;52.028;8.916;2023-01-31T11:51:41;5.30;99.90
6843;DHT22;3460;52.028;8.916;2023-01-31T11:54:13;5.30;99.90
6843;DHT22;3460;52.028;8.916;2023-01-31T11:56:42;5.30;99.90
6843;DHT22;3460;52.028;8.916;2023-01-31T11:59:15;5.20;99.90
6843;DHT22;3460;52.028;8.916;2023-01-31T12:01:45;5.20;99.90
6843;DHT22;3460;52.028;8.916;2023-01-31T12:04:16;5.20;99.90
6843;DHT22;3460;52.028;8.916;2023-01-31T12:06:58;5.20;99.90
6843;DHT22;3460;52.028;8.916;2023-01-31T12:09:28;5.20;99.90
6843;DHT22;3460;52.028;8.916;2023-01-31T12:11:56;5.30;99.90
6843;DHT22;3460;52.028;8.916;2023-01-31T12:14:35;5.20;99.90
6843;DHT22;3460;52.028;8.916;2023-01-31T12:17:02;5.40;99.90
6843;DHT22;3460;52.028;8.916;2023-01-31T12:19:40;5.30;99.90
6843;DHT22;3460;52.028;8.916;2023-01-31T12:22:14;5.40;99.90
6843;DHT22;3460;52.028;8.916;2023-01-31T12:24:50;5.40;99.90
6843;DHT22;3460;52.028;8.916;2023-01-31T12:27:34;5.40;99.90
6843;DHT22;3460;52.028;8.916;2023-01-31T12:31:00;5.40;99.90
6843;DHT22;3460;52.028;8.916;2023-01-31T12:33:38;5.40;99.90
6843;DHT22;3460;52.028;8.916;2023-01-31T12:36:21;5.40;99.90
6843;DHT22;3460;52.028;8.916;2023-01-31T12:39:17;5.40;99.90
6843;DHT22;3460;52.028;8.916;2023-01-31T12:41:59;5.40;99.90
6843;DHT22;3460;52.028;8.916;2023-01-31T12:44:42;5.40;99.90
6843;DHT22;3460;52.028;8.916;2023-01-31T12:47:31;5.50;99.90
6843;DHT22;3460;52.028;8.916;2023-01-31T12:50:23;5.50;99.90
6843;DHT22;3460;52.028;8.916;2023-01-31T12:53:06;5.50;99.90
6843;DHT22;3460;52.028;8.916;2023-01-31T12:55:40;5.50;99.90
6843;DHT22;3460;52.028;8.916;2023-01-31T12:58:20;5.50;99.90
6843;DHT22;3460;52.028;8.916;2023-01-31T13:00:54;5.60;99.90
6843;DHT22;3460;52.028;8.916;2023-01-31T13:03:37;5.60;99.90
6843;DHT22;3460;52.028;8.916;2023-01-31T13:06:11;5.50;99.90
6843;DHT22;3460;52.028;8.916;2023-01-31T13:08:43;5.50;99.90
6843;DHT22;3460;52.028;8.916;2023-01-31T13:11:15;5.50;99.90
6843;DHT22;3460;52.028;8.916;2023-01-31T13:13:46;5.40;99.90
6843;DHT22;3460;52.028;8.916;2023-01-31T13:16:19;5.40;99.90
6843;DHT22;3460;52.028;8.916;2023-01-31T13:18:48;5.40;99.90
6843;DHT22;3460;52.028;8.916;2023-01-31T13:21:18;5.40;99.90
6843;DHT22;3460;52.028;8.916;2023-01-31T13:23:50;5.30;99.90
6843;DHT22;3460;52.028;8.916;2023-01-31T13:26:22;5.30;99.90
6843;DHT22;3460;52.028;8.916;2023-01-31T13:28:56;5.30;99.90
6843;DHT22;3460;52.028;8.916;2023-01-31T13:31:26;5.30;99.90
6843;DHT22;3460;52.028;8.916;2023-01-31T13:33:57;5.30;99.90
6843;DHT22;3460;52.028;8.916;2023-01-31T13:36:28;5.30;99.90
6843;DHT22;3460;52.028;8.916;2023-01-31T13:38:57;5.30;99.90
6843;DHT22;3460;52.028;8.916;2023-01-31T13:41:30;5.40;99.90
6843;DHT22;3460;52.028;8.916;2023-01-31T13:43:57;5.30;99.90
6843;DHT22;3460;52.028;8.916;2023-01-31T13:46:28;5.30;99.90
6843;DHT22;3460;52.028;8.916;2023-01-31T13:49:00;5.40;99.90
6843;DHT22;3460;52.028;8.916;2023-01-31T13:51:33;5.30;99.90
6843;DHT22;3460;52.028;8.916;2023-01-31T13:54:05;5.30;99.90
6843;DHT22;3460;52.028;8.916;2023-01-31T13:56:35;5.40;99.90
6843;DHT22;3460;52.028;8.916;2023-01-31T13:59:06;5.40;99.90
6843;DHT22;3460;52.028;8.916;2023-01-31T14:01:35;5.40;99.90
6843;DHT22;3460;52.028;8.916;2023-01-31T14:04:26;5.40;99.90
6843;DHT22;3460;52.028;8.916;2023-01-31T14:06:55;5.50;99.90
6843;DHT22;3460;52.028;8.916;2023-01-31T14:09:25;5.50;99.90
6843;DHT22;3460;52.028;8.916;2023-01-31T14:11:54;5.50;99.90
6843;DHT22;3460;52.028;8.916;2023-01-31T14:14:37;5.50;99.90
6843;DHT22;3460;52.028;8.916;2023-01-31T14:17:09;5.50;99.90
6843;DHT22;3460;52.028;8.916;2023-01-31T14:19:59;5.50;99.90
6843;DHT22;3460;52.028;8.916;2023-01-31T14:22:26;5.60;99.90
6843;DHT22;3460;52.028;8.916;2023-01-31T14:24:57;5.50;99.90
6843;DHT22;3460;52.028;8.916;2023-01-31T14:27:29;5.50;99.90
6843;DHT22;3460;52.028;8.916;2023-01-31T14:32:47;5.60;99.90
6843;DHT22;3460;52.028;8.916;2023-01-31T14:35:27;5.70;99.90
6843;DHT22;3460;52.028;8.916;2023-01-31T14:38:04;5.60;99.90
6843;DHT22;3460;52.028;8.916;2023-01-31T14:40:37;5.70;99.90
6843;DHT22;3460;52.028;8.916;2023-01-31T14:43:23;5.70;99.90
6843;DHT22;3460;52.028;8.916;2023-01-31T14:46:13;5.70;99.90
6843;DHT22;3460;52.028;8.916;2023-01-31T14:49:11;5.80;99.90
6843;DHT22;3460;52.028;8.916;2023-01-31T14:51:52;5.80;99.90
6843;DHT22;3460;52.028;8.916;2023-01-31T14:54:40;5.80;99.90
6843;DHT22;3460;52.028;8.916;2023-01-31T14:57:14;5.80;99.90
6843;DHT22;3460;52.028;8.916;2023-01-31T14:59:51;5.80;99.90
6843;DHT22;3460;52.028;8.916;2023-01-31T15:02:50;5.80;99.90
6843;DHT22;3460;52.028;8.916;2023-01-31T15:05:22;5.80;99.90
6843;DHT22;3460;52.028;8.916;2023-01-31T15:07:58;5.80;99.90
6843;DHT22;3460;52.028;8.916;2023-01-31T15:10:53;5.80;99.90
6843;DHT22;3460;52.028;8.916;2023-01-31T15:13:46;5.80;99.90
6843;DHT22;3460;52.028;8.916;2023-01-31T15:16:20;5.90;99.90
6843;DHT22;3460;52.028;8.916;2023-01-31T15:18:50;6.00;99.90
6843;DHT22;3460;52.028;8.916;2023-01-31T15:21:22;6.00;99.90
6843;DHT22;3460;52.028;8.916;2023-01-31T15:23:51;6.00;99.90
6843;DHT22;3460;52.028;8.916;2023-01-31T15:26:19;6.00;99.90
6843;DHT22;3460;52.028;8.916;2023-01-31T15:28:48;6.00;99.90
6843;DHT22;3460;52.028;8.916;2023-01-31T15:31:19;6.10;99.90
6843;DHT22;3460;52.028;8.916;2023-01-31T15:33:50;6.10;99.90
6843;DHT22;3460;52.028;8.916;2023-01-31T15:36:22;6.10;99.90
6843;DHT22;3460;52.028;8.916;2023-01-31T15:38:52;6.10;99.90
6843;DHT22;3460;52.028;8.916;2023-01-31T15:41:23;6.10;99.90
6843;DHT22;3460;52.028;8.916;2023-01-31T15:43:51;6.10;99.90
6843;DHT22;3460;52.028;8.916;2023-01-31T15:46:26;6.10;99.90
6843;DHT22;3460;52.028;8.916;2023-01-31T15:48:53;6.20;99.90
6843;DHT22;3460;52.028;8.916;2023-01-31T15:51:20;6.20;99.90
6843;DHT22;3460;52.028;8.916;2023-01-31T15:53:48;6.20;99.90
6843;DHT22;3460;52.028;8.916;2023-01-31T15:56:26;6.30;99.90
6843;DHT22;3460;52.028;8.916;2023-01-31T15:58:54;6.30;99.90
6843;DHT22;3460;52.028;8.916;2023-01-31T16:01:23;6.30;99.90
6843;DHT22;3460;52.028;8.916;2023-01-31T16:03:56;6.30;99.90
6843;DHT22;3460;52.028;8.916;2023-01-31T16:06:25;6.30;99.90
6843;DHT22;3460;52.028;8.916;2023-01-31T16:08:54;6.30;99.90
6843;DHT22;3460;52.028;8.916;2023-01-31T16:11:21;6.30;99.90
6843;DHT22;3460;52.028;8.916;2023-01-31T16:13:51;6.30;99.90
6843;DHT22;3460;52.028;8.916;2023-01-31T16:16:19;6.40;99.90
6843;DHT22;3460;52.028;8.916;2023-01-31T16:18:50;6.40;99.90
6843;DHT22;3460;52.028;8.916;2023-01-31T16:21:26;6.50;99.90
6843;DHT22;3460;52.028;8.916;2023-01-31T16:23:57;6.50;99.90
6843;DHT22;3460;52.028;8.916;2023-01-31T16:26:26;6.50;99.90
6843;DHT22;3460;52.028;8.916;2023-01-31T16:28:58;6.50;99.90
6843;DHT22;3460;52.028;8.916;2023-01-31T16:31:27;6.50;99.90
6843;DHT22;3460;52.028;8.916;2023-01-31T16:33:57;6.50;99.90
6843;DHT22;3460;52.028;8.916;2023-01-31T16:36:29;6.60;99.90
6843;DHT22;3460;52.028;8.916;2023-01-31T16:38:59;6.60;99.90
6843;DHT22;3460;52.028;8.916;2023-01-31T16:41:44;6.60;99.90
6843;DHT22;3460;52.028;8.916;2023-01-31T16:44:14;6.60;99.90
6843;DHT22;3460;52.028;8.916;2023-01-31T16:46:45;6.50;99.90
6843;DHT22;3460;52.028;8.916;2023-01-31T16:49:22;6.50;99.90
6843;DHT22;3460;52.028;8.916;2023-01-31T16:51:49;6.50;99.90